createdAt,value
2019-01-25T00:00:09.187Z,0
2019-01-25T00:01:19.288Z,0
2019-01-25T00:02:29.412Z,0
2019-01-25T00:03:39.522Z,0
2019-01-25T00:04:49.612Z,0
2019-01-25T00:05:59.714Z,0
2019-01-25T00:07:09.826Z,0
2019-01-25T00:08:19.936Z,0
2019-01-25T00:09:30.052Z,0
2019-01-25T00:10:40.181Z,0
2019-01-25T00:11:50.292Z,0
2019-01-25T00:13:00.394Z,0
2019-01-25T00:14:10.509Z,0
2019-01-25T00:15:20.638Z,0
2019-01-25T00:16:30.757Z,0
2019-01-25T00:17:40.621Z,0
2019-01-25T00:18:50.727Z,0
2019-01-25T00:20:00.934Z,0
2019-01-25T00:21:11.051Z,0
2019-01-25T00:22:21.158Z,0
2019-01-25T00:23:30.765Z,0
2019-01-25T00:24:40.877Z,0
2019-01-25T00:25:50.976Z,0
2019-01-25T00:27:01.094Z,0
2019-01-25T00:28:11.189Z,0
2019-01-25T00:29:21.302Z,0
2019-01-25T00:30:31.432Z,0
2019-01-25T00:31:42.297Z,0
2019-01-25T00:32:52.158Z,0
2019-01-25T00:34:02.262Z,0
2019-01-25T00:35:12.411Z,0
2019-01-25T00:36:22.827Z,0
2019-01-25T00:37:32.960Z,0
2019-01-25T00:38:43.066Z,0
2019-01-25T00:39:53.168Z,0
2019-01-25T00:41:03.317Z,0
2019-01-25T00:42:13.426Z,0
2019-01-25T00:43:23.523Z,0
2019-01-25T00:44:33.629Z,0
2019-01-25T00:45:43.733Z,0
2019-01-25T00:46:53.838Z,0
2019-01-25T00:48:03.939Z,0
2019-01-25T00:49:14.050Z,0
2019-01-25T00:50:24.177Z,0
2019-01-25T00:51:34.282Z,0
2019-01-25T00:52:44.384Z,0
2019-01-25T00:53:54.519Z,0
2019-01-25T00:55:04.618Z,0
2019-01-25T00:56:14.720Z,0
2019-01-25T00:57:24.843Z,0
2019-01-25T00:58:34.935Z,0
2019-01-25T00:59:45.091Z,0
2019-01-25T01:00:55.187Z,0
2019-01-25T01:02:05.288Z,0
2019-01-25T01:03:15.392Z,0
2019-01-25T01:04:25.482Z,0
2019-01-25T01:05:35.635Z,0
2019-01-25T01:06:45.729Z,0
2019-01-25T01:07:55.842Z,0
2019-01-25T01:09:05.707Z,0
2019-01-25T01:10:21.420Z,0
2019-01-25T01:11:31.544Z,0
2019-01-25T01:12:41.651Z,0
2019-01-25T01:13:51.770Z,0
2019-01-25T01:15:01.870Z,0
2019-01-25T01:16:12.191Z,0
2019-01-25T01:17:22.310Z,0
2019-01-25T01:18:32.431Z,0
2019-01-25T01:19:42.548Z,0
2019-01-25T01:20:52.399Z,0
2019-01-25T01:22:02.518Z,0
2019-01-25T01:23:12.686Z,0
2019-01-25T01:24:22.833Z,0
2019-01-25T01:25:32.937Z,0
2019-01-25T01:26:43.037Z,0
2019-01-25T01:27:53.157Z,0
2019-01-25T01:29:03.259Z,0
2019-01-25T01:30:13.106Z,0
2019-01-25T01:31:23.210Z,0
2019-01-25T01:32:33.321Z,0
2019-01-25T01:33:43.429Z,0
2019-01-25T01:34:53.512Z,0
2019-01-25T01:36:03.612Z,0
2019-01-25T01:37:13.712Z,0
2019-01-25T01:38:23.805Z,0
2019-01-25T01:39:34.008Z,0
2019-01-25T01:40:44.121Z,0
2019-01-25T01:41:53.962Z,0
2019-01-25T01:43:04.058Z,0
2019-01-25T01:44:14.182Z,0
2019-01-25T01:45:24.287Z,0
2019-01-25T01:46:34.389Z,0
2019-01-25T01:47:44.509Z,0
2019-01-25T01:48:54.612Z,0
2019-01-25T01:50:04.716Z,0
2019-01-25T01:51:14.814Z,0
2019-01-25T01:52:24.927Z,0
2019-01-25T01:53:35.029Z,0
2019-01-25T01:54:45.116Z,0
2019-01-25T01:55:55.220Z,0
2019-01-25T01:57:05.307Z,0
2019-01-25T01:58:15.411Z,0
2019-01-25T01:59:25.510Z,0
2019-01-25T02:00:35.611Z,0
2019-01-25T02:01:46.702Z,0
2019-01-25T02:02:56.806Z,0
2019-01-25T02:04:06.910Z,0
2019-01-25T02:05:17.019Z,0
2019-01-25T02:06:27.122Z,0
2019-01-25T02:07:37.215Z,0
2019-01-25T02:08:47.307Z,0
2019-01-25T02:09:57.397Z,0
2019-01-25T02:11:07.544Z,0
2019-01-25T02:12:17.635Z,0
2019-01-25T02:13:27.725Z,0
2019-01-25T02:14:37.831Z,0
2019-01-25T02:15:47.939Z,0
2019-01-25T02:16:58.034Z,0
2019-01-25T02:18:07.882Z,0
2019-01-25T02:19:17.984Z,0
2019-01-25T02:20:28.110Z,0
2019-01-25T02:21:38.223Z,0
2019-01-25T02:22:48.320Z,0
2019-01-25T02:23:58.412Z,0
2019-01-25T02:25:08.522Z,0
2019-01-25T02:26:18.614Z,0
2019-01-25T02:27:28.453Z,0
2019-01-25T02:28:38.548Z,0
2019-01-25T02:29:48.288Z,0
2019-01-25T02:30:58.472Z,0
2019-01-25T02:32:08.949Z,0
2019-01-25T02:33:19.057Z,0
2019-01-25T02:34:29.159Z,0
2019-01-25T02:35:39.267Z,0
2019-01-25T02:36:49.375Z,0
2019-01-25T02:37:59.486Z,0
2019-01-25T02:39:09.581Z,0
2019-01-25T02:40:19.697Z,0
2019-01-25T02:41:29.804Z,0
2019-01-25T02:42:40.582Z,0
2019-01-25T02:43:50.692Z,0
2019-01-25T02:45:00.790Z,0
2019-01-25T02:46:10.904Z,0
2019-01-25T02:47:21.000Z,0
2019-01-25T02:48:31.170Z,0
2019-01-25T02:49:41.295Z,0
2019-01-25T02:50:51.387Z,0
2019-01-25T02:52:01.473Z,0
2019-01-25T02:53:13.712Z,0
2019-01-25T02:54:23.810Z,0
2019-01-25T02:55:33.914Z,0
2019-01-25T02:56:44.030Z,0
2019-01-25T02:57:54.134Z,0
2019-01-25T02:59:04.232Z,0
2019-01-25T03:00:14.087Z,0
2019-01-25T03:01:24.179Z,0
2019-01-25T03:02:34.285Z,0
2019-01-25T03:03:44.378Z,0
2019-01-25T03:04:54.469Z,0
2019-01-25T03:06:04.574Z,0
2019-01-25T03:07:14.677Z,0
2019-01-25T03:08:24.780Z,0
2019-01-25T03:09:34.880Z,0
2019-01-25T03:10:51.970Z,0
2019-01-25T03:12:02.100Z,0
2019-01-25T03:13:12.217Z,0
2019-01-25T03:14:22.084Z,0
2019-01-25T03:15:32.184Z,0
2019-01-25T03:16:42.287Z,0
2019-01-25T03:17:52.387Z,0
2019-01-25T03:19:02.491Z,0
2019-01-25T03:20:12.245Z,0
2019-01-25T03:21:22.361Z,0
2019-01-25T03:22:32.460Z,0
2019-01-25T03:23:42.567Z,0
2019-01-25T03:24:52.303Z,0
2019-01-25T03:26:02.418Z,0
2019-01-25T03:27:12.523Z,0
2019-01-25T03:28:22.619Z,0
2019-01-25T03:29:32.720Z,0
2019-01-25T03:30:42.857Z,0
2019-01-25T03:31:53.046Z,0
2019-01-25T03:33:03.144Z,0
2019-01-25T03:34:13.244Z,0
2019-01-25T03:35:23.368Z,0
2019-01-25T03:36:33.160Z,0
2019-01-25T03:37:43.003Z,0
2019-01-25T03:38:53.104Z,0
2019-01-25T03:40:03.083Z,0
2019-01-25T03:41:13.188Z,0
2019-01-25T03:42:23.288Z,0
2019-01-25T03:43:33.381Z,0
2019-01-25T03:44:43.502Z,0
2019-01-25T03:45:53.611Z,0
2019-01-25T03:47:03.706Z,0
2019-01-25T03:48:13.555Z,0
2019-01-25T03:49:23.655Z,0
2019-01-25T03:50:33.763Z,0
2019-01-25T03:51:43.861Z,0
2019-01-25T03:52:53.982Z,0
2019-01-25T03:54:04.083Z,0
2019-01-25T03:55:14.187Z,0
2019-01-25T03:56:24.035Z,0
2019-01-25T03:57:34.142Z,0
2019-01-25T03:58:44.247Z,0
2019-01-25T03:59:54.350Z,0
2019-01-25T04:01:04.467Z,0
2019-01-25T04:02:14.570Z,0
2019-01-25T04:03:24.683Z,0
2019-01-25T04:04:34.785Z,0
2019-01-25T04:05:44.874Z,0
2019-01-25T04:06:54.969Z,0
2019-01-25T04:08:05.097Z,0
2019-01-25T04:09:14.956Z,0
2019-01-25T04:10:25.101Z,0
2019-01-25T04:11:35.202Z,0
2019-01-25T04:12:45.054Z,0
2019-01-25T04:13:55.159Z,0
2019-01-25T04:15:05.260Z,0
2019-01-25T04:16:15.373Z,0
2019-01-25T04:17:25.463Z,0
2019-01-25T04:18:35.574Z,0
2019-01-25T04:19:45.664Z,0
2019-01-25T04:20:55.771Z,0
2019-01-25T04:22:05.878Z,0
2019-01-25T04:23:15.971Z,0
2019-01-25T04:24:26.091Z,0
2019-01-25T04:25:36.194Z,0
2019-01-25T04:26:46.287Z,0
2019-01-25T04:27:56.398Z,0
2019-01-25T04:29:06.491Z,0
2019-01-25T04:30:16.674Z,0
2019-01-25T04:31:26.799Z,0
2019-01-25T04:32:36.905Z,0
2019-01-25T04:33:47.009Z,0
2019-01-25T04:34:57.173Z,0
2019-01-25T04:36:07.026Z,0
2019-01-25T04:37:17.138Z,0
2019-01-25T04:38:27.255Z,0
2019-01-25T04:39:37.356Z,0
2019-01-25T04:40:47.466Z,0
2019-01-25T04:41:57.560Z,0
2019-01-25T04:43:07.679Z,0
2019-01-25T04:44:17.784Z,0
2019-01-25T04:45:27.895Z,0
2019-01-25T04:46:38.007Z,0
2019-01-25T04:47:48.114Z,0
2019-01-25T04:48:58.217Z,0
2019-01-25T04:50:08.081Z,0
2019-01-25T04:51:18.179Z,0
2019-01-25T04:52:28.291Z,0
2019-01-25T04:53:38.142Z,0
2019-01-25T04:54:48.244Z,0
2019-01-25T04:56:00.157Z,0
2019-01-25T04:57:10.330Z,0
2019-01-25T04:58:20.425Z,0
2019-01-25T04:59:30.535Z,0
2019-01-25T05:00:40.382Z,0
2019-01-25T05:01:52.080Z,0
2019-01-25T05:03:02.321Z,0
2019-01-25T05:04:12.436Z,0
2019-01-25T05:05:22.593Z,0
2019-01-25T05:06:32.698Z,0
2019-01-25T05:07:42.846Z,0
2019-01-25T05:08:52.942Z,0
2019-01-25T05:10:03.069Z,0
2019-01-25T05:11:19.689Z,0
2019-01-25T05:12:30.068Z,0
2019-01-25T05:13:41.408Z,0
2019-01-25T05:14:51.534Z,0
2019-01-25T05:16:01.633Z,0
2019-01-25T05:17:12.351Z,0
2019-01-25T05:18:22.477Z,0
2019-01-25T05:19:32.586Z,0
2019-01-25T05:20:42.717Z,0
2019-01-25T05:21:52.833Z,0
2019-01-25T05:23:02.962Z,0
2019-01-25T05:24:13.082Z,0
2019-01-25T05:25:23.208Z,0
2019-01-25T05:26:33.329Z,0
2019-01-25T05:27:43.447Z,0
2019-01-25T05:28:53.562Z,0
2019-01-25T05:30:03.706Z,0
2019-01-25T05:31:13.806Z,0
2019-01-25T05:32:23.914Z,0
2019-01-25T05:33:34.228Z,0
2019-01-25T05:34:44.355Z,0
2019-01-25T05:35:54.465Z,0
2019-01-25T05:37:04.583Z,0
2019-01-25T05:38:14.338Z,0
2019-01-25T05:39:24.450Z,0
2019-01-25T05:40:34.340Z,0
2019-01-25T05:41:44.455Z,0
2019-01-25T05:42:54.570Z,0
2019-01-25T05:44:04.663Z,0
2019-01-25T05:45:14.797Z,0
2019-01-25T05:46:24.901Z,0
2019-01-25T05:47:34.996Z,0
2019-01-25T05:48:44.838Z,0
2019-01-25T05:49:54.974Z,0
2019-01-25T05:51:05.080Z,0
2019-01-25T05:52:15.185Z,0
2019-01-25T05:53:25.277Z,0
2019-01-25T05:54:35.376Z,0
2019-01-25T05:55:45.465Z,0
2019-01-25T05:56:56.583Z,0
2019-01-25T05:58:06.708Z,0
2019-01-25T05:59:16.822Z,0
2019-01-25T06:00:26.948Z,0
2019-01-25T06:01:37.064Z,0
2019-01-25T06:02:47.178Z,0
2019-01-25T06:03:57.287Z,0
2019-01-25T06:05:07.401Z,0
2019-01-25T06:06:17.527Z,0
2019-01-25T06:07:27.620Z,0
2019-01-25T06:08:43.732Z,0
2019-01-25T06:09:54.209Z,0
2019-01-25T06:11:04.312Z,0
2019-01-25T06:12:14.424Z,0
2019-01-25T06:13:24.543Z,0
2019-01-25T06:14:34.649Z,0
2019-01-25T06:15:44.768Z,0
2019-01-25T06:16:54.863Z,0
2019-01-25T06:18:04.957Z,0
2019-01-25T06:19:15.110Z,0
2019-01-25T06:20:25.227Z,0
2019-01-25T06:21:35.328Z,0
2019-01-25T06:22:45.429Z,0
2019-01-25T06:23:55.618Z,0
2019-01-25T06:25:05.903Z,0
2019-01-25T06:26:16.030Z,0
2019-01-25T06:27:26.141Z,0
2019-01-25T06:28:36.253Z,0
2019-01-25T06:29:46.095Z,0
2019-01-25T06:30:56.199Z,0
2019-01-25T06:32:06.298Z,0
2019-01-25T06:33:16.399Z,0
2019-01-25T06:34:26.508Z,0
2019-01-25T06:35:36.632Z,0
2019-01-25T06:36:46.763Z,0
2019-01-25T06:37:56.869Z,0
2019-01-25T06:39:06.977Z,0
2019-01-25T06:40:17.081Z,0
2019-01-25T06:41:27.186Z,0
2019-01-25T06:42:37.287Z,0
2019-01-25T06:43:47.385Z,0
2019-01-25T06:44:57.467Z,0
2019-01-25T06:46:07.575Z,0
2019-01-25T06:47:17.701Z,0
2019-01-25T06:48:28.044Z,0
2019-01-25T06:49:38.107Z,0
2019-01-25T06:50:48.218Z,0
2019-01-25T06:51:58.332Z,0
2019-01-25T06:53:08.436Z,0
2019-01-25T06:54:19.167Z,0
2019-01-25T06:55:29.277Z,0
2019-01-25T06:56:39.371Z,0
2019-01-25T06:57:49.493Z,0
2019-01-25T06:58:59.597Z,0
2019-01-25T07:00:09.701Z,0
2019-01-25T07:01:19.805Z,0
2019-01-25T07:02:29.897Z,0
2019-01-25T07:03:40.206Z,0
2019-01-25T07:04:50.310Z,0
2019-01-25T07:06:00.419Z,0
2019-01-25T07:07:10.531Z,0
2019-01-25T07:08:20.626Z,0
2019-01-25T07:09:30.728Z,0
2019-01-25T07:10:40.852Z,0
2019-01-25T07:11:58.757Z,0
2019-01-25T07:13:08.872Z,0
2019-01-25T07:14:18.974Z,0
2019-01-25T07:15:29.074Z,0
2019-01-25T07:16:39.160Z,0
2019-01-25T07:17:49.288Z,0
2019-01-25T07:18:59.406Z,0
2019-01-25T07:20:09.522Z,5
2019-01-25T07:21:19.640Z,5
2019-01-25T07:22:29.748Z,5
2019-01-25T07:23:39.835Z,5
2019-01-25T07:24:57.074Z,5
2019-01-25T07:26:07.326Z,5
2019-01-25T07:27:17.430Z,5
2019-01-25T07:28:27.539Z,5
2019-01-25T07:29:37.746Z,5
2019-01-25T07:30:47.852Z,5
2019-01-25T07:31:57.999Z,5
2019-01-25T07:33:08.201Z,5
2019-01-25T07:34:18.395Z,5
2019-01-25T07:35:28.520Z,10
2019-01-25T07:36:38.640Z,10
2019-01-25T07:37:48.883Z,10
2019-01-25T07:38:59.034Z,10
2019-01-25T07:40:09.229Z,10
2019-01-25T07:41:19.562Z,10
2019-01-25T07:42:29.815Z,10
2019-01-25T07:43:39.992Z,10
2019-01-25T07:44:50.616Z,10
2019-01-25T07:46:00.787Z,10
2019-01-25T07:47:11.019Z,10
2019-01-25T07:48:21.198Z,10
2019-01-25T07:49:31.706Z,10
2019-01-25T07:50:41.869Z,10
2019-01-25T07:51:52.020Z,10
2019-01-25T07:53:02.201Z,10
2019-01-25T07:54:12.344Z,10
2019-01-25T07:55:22.596Z,10
2019-01-25T07:56:32.742Z,10
2019-01-25T07:57:42.679Z,10
2019-01-25T07:58:52.697Z,15
2019-01-25T08:00:03.466Z,15
2019-01-25T08:01:13.682Z,15
2019-01-25T08:02:23.850Z,15
2019-01-25T08:03:34.021Z,15
2019-01-25T08:04:44.244Z,15
2019-01-25T08:05:54.461Z,15
2019-01-25T08:07:04.630Z,20
2019-01-25T08:08:14.929Z,20
2019-01-25T08:09:25.122Z,20
2019-01-25T08:10:35.739Z,20
2019-01-25T08:11:45.925Z,20
2019-01-25T08:12:56.226Z,20
2019-01-25T08:14:06.381Z,20
2019-01-25T08:15:16.641Z,20
2019-01-25T08:16:26.848Z,20
2019-01-25T08:17:37.037Z,20
2019-01-25T08:18:47.177Z,20
2019-01-25T08:19:59.170Z,20
2019-01-25T08:21:09.822Z,20
2019-01-25T08:22:20.014Z,20
2019-01-25T08:23:30.209Z,20
2019-01-25T08:24:40.389Z,25
2019-01-25T08:25:50.784Z,25
2019-01-25T08:27:01.014Z,25
2019-01-25T08:28:11.198Z,25
2019-01-25T08:29:27.822Z,30
2019-01-25T08:30:38.517Z,30
2019-01-25T08:31:49.205Z,30
2019-01-25T08:32:59.506Z,30
2019-01-25T08:34:09.789Z,30
2019-01-25T08:35:20.139Z,35
2019-01-25T08:36:30.066Z,35
2019-01-25T08:37:40.264Z,35
2019-01-25T08:38:50.172Z,40
2019-01-25T08:40:00.584Z,45
2019-01-25T08:41:10.787Z,45
2019-01-25T08:42:25.261Z,50
2019-01-25T08:43:35.454Z,50
2019-01-25T08:44:45.991Z,55
2019-01-25T08:45:56.867Z,55
2019-01-25T08:47:07.130Z,60
2019-01-25T08:48:17.415Z,60
2019-01-25T08:49:27.856Z,60
2019-01-25T08:50:38.550Z,60
2019-01-25T08:51:49.009Z,65
2019-01-25T08:52:59.709Z,65
2019-01-25T08:54:10.013Z,70
2019-01-25T08:55:21.366Z,75
2019-01-25T08:56:32.060Z,80
2019-01-25T08:57:42.445Z,85
2019-01-25T08:58:52.734Z,85
2019-01-25T09:00:02.872Z,75
2019-01-25T09:01:12.737Z,75
2019-01-25T09:02:22.843Z,75
2019-01-25T09:03:32.954Z,80
2019-01-25T09:04:42.804Z,85
2019-01-25T09:05:52.955Z,85
2019-01-25T09:07:03.087Z,90
2019-01-25T09:08:13.219Z,95
2019-01-25T09:09:23.318Z,105
2019-01-25T09:10:33.446Z,110
2019-01-25T09:11:43.585Z,115
2019-01-25T09:12:53.692Z,130
2019-01-25T09:14:03.800Z,135
2019-01-25T09:15:13.919Z,130
2019-01-25T09:16:24.049Z,125
2019-01-25T09:17:34.169Z,120
2019-01-25T09:18:44.273Z,120
2019-01-25T09:19:54.389Z,115
2019-01-25T09:21:04.503Z,115
2019-01-25T09:22:14.635Z,110
2019-01-25T09:23:24.747Z,110
2019-01-25T09:24:34.887Z,110
2019-01-25T09:25:44.994Z,110
2019-01-25T09:26:55.450Z,105
2019-01-25T09:28:05.581Z,100
2019-01-25T09:29:15.728Z,90
2019-01-25T09:30:25.854Z,80
2019-01-25T09:31:35.980Z,80
2019-01-25T09:32:46.279Z,80
2019-01-25T09:33:56.092Z,80
2019-01-25T09:35:06.862Z,85
2019-01-25T09:36:17.081Z,85
2019-01-25T09:37:27.225Z,90
2019-01-25T09:38:39.048Z,90
2019-01-25T09:39:49.147Z,90
2019-01-25T09:40:59.328Z,90
2019-01-25T09:42:09.436Z,95
2019-01-25T09:43:19.542Z,95
2019-01-25T09:44:29.664Z,95
2019-01-25T09:45:39.527Z,95
2019-01-25T09:46:49.703Z,105
2019-01-25T09:47:59.815Z,120
2019-01-25T09:49:09.918Z,120
2019-01-25T09:50:19.823Z,115
2019-01-25T09:51:29.963Z,115
2019-01-25T09:52:40.100Z,125
2019-01-25T09:53:50.225Z,130
2019-01-25T09:55:00.326Z,140
2019-01-25T09:56:10.439Z,140
2019-01-25T09:57:20.568Z,140
2019-01-25T09:58:30.693Z,135
2019-01-25T09:59:42.298Z,135
2019-01-25T10:00:52.524Z,145
2019-01-25T10:02:02.633Z,145
2019-01-25T10:03:12.963Z,145
2019-01-25T10:04:23.083Z,145
2019-01-25T10:05:33.206Z,150
2019-01-25T10:06:43.329Z,150
2019-01-25T10:07:53.512Z,150
2019-01-25T10:09:03.653Z,150
2019-01-25T10:10:13.771Z,160
2019-01-25T10:11:23.957Z,165
2019-01-25T10:12:43.354Z,170
2019-01-25T10:13:53.790Z,165
2019-01-25T10:15:03.913Z,160
2019-01-25T10:16:14.034Z,150
2019-01-25T10:17:24.157Z,150
2019-01-25T10:18:34.748Z,145
2019-01-25T10:19:44.872Z,140
2019-01-25T10:20:54.991Z,140
2019-01-25T10:22:05.091Z,135
2019-01-25T10:23:14.848Z,135
2019-01-25T10:24:25.010Z,125
2019-01-25T10:25:35.119Z,120
2019-01-25T10:26:45.242Z,130
2019-01-25T10:27:56.858Z,135
2019-01-25T10:29:06.975Z,150
2019-01-25T10:30:17.125Z,165
2019-01-25T10:31:27.262Z,180
2019-01-25T10:32:37.382Z,185
2019-01-25T10:33:47.537Z,190
2019-01-25T10:34:57.667Z,195
2019-01-25T10:36:07.780Z,190
2019-01-25T10:37:17.897Z,185
2019-01-25T10:38:28.031Z,180
2019-01-25T10:39:38.128Z,170
2019-01-25T10:40:49.496Z,165
2019-01-25T10:41:59.669Z,155
2019-01-25T10:43:10.041Z,155
2019-01-25T10:44:20.188Z,155
2019-01-25T10:45:30.297Z,165
2019-01-25T10:46:40.417Z,175
2019-01-25T10:47:50.520Z,175
2019-01-25T10:49:00.692Z,180
2019-01-25T10:50:10.801Z,175
2019-01-25T10:51:20.672Z,180
2019-01-25T10:52:30.795Z,185
2019-01-25T10:53:40.937Z,175
2019-01-25T10:54:51.060Z,160
2019-01-25T10:56:01.163Z,155
2019-01-25T10:57:11.311Z,155
2019-01-25T10:58:21.484Z,165
2019-01-25T10:59:31.617Z,190
2019-01-25T11:00:41.736Z,190
2019-01-25T11:01:51.585Z,190
2019-01-25T11:03:07.884Z,205
2019-01-25T11:04:21.325Z,220
2019-01-25T11:05:31.440Z,225
2019-01-25T11:06:41.563Z,215
2019-01-25T11:07:51.672Z,240
2019-01-25T11:09:02.756Z,355
2019-01-25T11:10:12.890Z,365
2019-01-25T11:11:23.021Z,395
2019-01-25T11:12:33.161Z,350
2019-01-25T11:13:43.285Z,355
2019-01-25T11:14:53.428Z,340
2019-01-25T11:16:03.553Z,335
2019-01-25T11:17:13.682Z,325
2019-01-25T11:18:23.812Z,305
2019-01-25T11:19:33.654Z,270
2019-01-25T11:20:43.766Z,225
2019-01-25T11:21:53.886Z,190
2019-01-25T11:23:03.987Z,175
2019-01-25T11:24:17.587Z,185
2019-01-25T11:25:27.714Z,190
2019-01-25T11:26:37.831Z,180
2019-01-25T11:27:47.945Z,175
2019-01-25T11:28:58.066Z,150
2019-01-25T11:30:08.201Z,175
2019-01-25T11:31:18.366Z,190
2019-01-25T11:32:28.478Z,185
2019-01-25T11:33:38.337Z,175
2019-01-25T11:34:48.103Z,170
2019-01-25T11:35:58.241Z,160
2019-01-25T11:37:08.358Z,150
2019-01-25T11:38:18.474Z,125
2019-01-25T11:39:28.375Z,140
2019-01-25T11:40:38.251Z,125
2019-01-25T11:41:48.397Z,130
2019-01-25T11:42:58.687Z,125
2019-01-25T11:44:08.821Z,120
2019-01-25T11:45:18.937Z,125
2019-01-25T11:46:29.088Z,130
2019-01-25T11:47:39.212Z,125
2019-01-25T11:48:49.339Z,120
2019-01-25T11:49:59.490Z,125
2019-01-25T11:51:09.607Z,120
2019-01-25T11:52:19.749Z,120
2019-01-25T11:53:29.871Z,125
2019-01-25T11:54:39.997Z,130
2019-01-25T11:55:50.147Z,140
2019-01-25T11:57:00.278Z,175
2019-01-25T11:58:10.448Z,185
2019-01-25T11:59:20.599Z,260
2019-01-25T12:00:30.766Z,230
2019-01-25T12:01:40.890Z,220
2019-01-25T12:02:50.995Z,215
2019-01-25T12:04:01.146Z,215
2019-01-25T12:05:11.263Z,210
2019-01-25T12:06:21.396Z,195
2019-01-25T12:07:31.537Z,185
2019-01-25T12:08:41.693Z,175
2019-01-25T12:09:51.830Z,150
2019-01-25T12:11:01.954Z,130
2019-01-25T12:12:12.096Z,115
2019-01-25T12:13:26.028Z,110
2019-01-25T12:14:36.159Z,115
2019-01-25T12:15:46.353Z,125
2019-01-25T12:16:56.145Z,135
2019-01-25T12:18:06.273Z,125
2019-01-25T12:19:16.407Z,120
2019-01-25T12:20:26.268Z,105
2019-01-25T12:21:36.365Z,100
2019-01-25T12:22:46.722Z,105
2019-01-25T12:23:56.879Z,100
2019-01-25T12:25:06.633Z,95
2019-01-25T12:26:16.753Z,85
2019-01-25T12:27:26.886Z,80
2019-01-25T12:28:37.001Z,80
2019-01-25T12:29:47.134Z,75
2019-01-25T12:30:57.490Z,65
2019-01-25T12:32:08.501Z,60
2019-01-25T12:33:18.649Z,60
2019-01-25T12:34:28.759Z,65
2019-01-25T12:35:38.621Z,65
2019-01-25T12:36:48.742Z,65
2019-01-25T12:37:58.863Z,65
2019-01-25T12:39:09.005Z,65
2019-01-25T12:40:19.173Z,65
2019-01-25T12:41:29.303Z,65
2019-01-25T12:42:39.434Z,75
2019-01-25T12:43:49.575Z,105
2019-01-25T12:44:59.691Z,135
2019-01-25T12:46:09.818Z,145
2019-01-25T12:47:19.934Z,165
2019-01-25T12:48:30.059Z,175
2019-01-25T12:49:40.194Z,180
2019-01-25T12:50:53.955Z,190
2019-01-25T12:52:10.716Z,185
2019-01-25T12:53:20.940Z,185
2019-01-25T12:54:31.096Z,185
2019-01-25T12:55:42.532Z,185
2019-01-25T12:56:52.654Z,175
2019-01-25T12:58:02.794Z,170
2019-01-25T12:59:13.021Z,165
2019-01-25T13:00:23.189Z,170
2019-01-25T13:01:37.449Z,160
2019-01-25T13:02:47.569Z,145
2019-01-25T13:03:57.689Z,125
2019-01-25T13:05:07.811Z,120
2019-01-25T13:06:18.061Z,110
2019-01-25T13:07:28.229Z,95
2019-01-25T13:08:38.373Z,100
2019-01-25T13:09:48.578Z,100
2019-01-25T13:10:58.710Z,95
2019-01-25T13:12:08.898Z,95
2019-01-25T13:13:19.093Z,95
2019-01-25T13:14:29.248Z,95
2019-01-25T13:15:39.372Z,95
2019-01-25T13:16:50.735Z,95
2019-01-25T13:18:01.020Z,85
2019-01-25T13:19:11.164Z,85
2019-01-25T13:20:21.277Z,85
2019-01-25T13:21:31.132Z,85
2019-01-25T13:22:42.342Z,80
2019-01-25T13:23:52.547Z,80
2019-01-25T13:25:02.691Z,80
2019-01-25T13:26:12.952Z,80
2019-01-25T13:27:23.063Z,80
2019-01-25T13:28:33.460Z,75
2019-01-25T13:29:43.437Z,70
2019-01-25T13:30:53.981Z,75
2019-01-25T13:32:04.434Z,70
2019-01-25T13:33:14.650Z,65
2019-01-25T13:34:24.977Z,55
2019-01-25T13:35:35.315Z,55
2019-01-25T13:36:45.482Z,50
2019-01-25T13:37:55.641Z,45
2019-01-25T13:39:06.158Z,45
2019-01-25T13:40:16.421Z,55
2019-01-25T13:41:29.871Z,60
2019-01-25T13:42:39.998Z,65
2019-01-25T13:43:51.103Z,65
2019-01-25T13:45:01.237Z,65
2019-01-25T13:46:11.372Z,60
2019-01-25T13:47:21.500Z,55
2019-01-25T13:48:31.627Z,55
2019-01-25T13:49:41.153Z,50
2019-01-25T13:50:51.479Z,50
2019-01-25T13:52:03.296Z,45
2019-01-25T13:53:13.443Z,45
2019-01-25T13:54:24.660Z,40
2019-01-25T13:55:38.755Z,40
2019-01-25T13:56:48.893Z,45
2019-01-25T13:57:59.012Z,45
2019-01-25T13:59:10.333Z,45
2019-01-25T14:00:20.476Z,50
2019-01-25T14:01:37.079Z,50
2019-01-25T14:02:47.232Z,50
2019-01-25T14:03:57.360Z,50
2019-01-25T14:05:39.398Z,55
2019-01-25T14:06:49.536Z,60
2019-01-25T14:07:59.696Z,55
2019-01-25T14:09:09.569Z,55
2019-01-25T14:10:19.701Z,55
2019-01-25T14:11:29.877Z,50
2019-01-25T14:12:40.083Z,50
2019-01-25T14:13:56.521Z,45
2019-01-25T14:15:06.646Z,45
2019-01-25T14:16:16.792Z,40
2019-01-25T14:17:26.938Z,40
2019-01-25T14:18:37.091Z,40
2019-01-25T14:19:47.340Z,35
2019-01-25T14:20:57.476Z,35
2019-01-25T14:22:07.724Z,40
2019-01-25T14:23:17.863Z,40
2019-01-25T14:24:27.974Z,35
2019-01-25T14:25:38.152Z,35
2019-01-25T14:26:48.293Z,35
2019-01-25T14:27:58.452Z,35
2019-01-25T14:29:09.385Z,35
2019-01-25T14:30:20.603Z,30
2019-01-25T14:31:30.746Z,30
2019-01-25T14:32:40.902Z,30
2019-01-25T14:33:51.072Z,30
2019-01-25T14:35:01.176Z,30
2019-01-25T14:36:11.324Z,30
2019-01-25T14:37:21.478Z,30
2019-01-25T14:38:31.688Z,30
2019-01-25T14:39:41.869Z,30
2019-01-25T14:40:51.747Z,30
2019-01-25T14:42:01.912Z,30
2019-01-25T14:43:12.055Z,35
2019-01-25T14:44:22.195Z,35
2019-01-25T14:45:32.081Z,35
2019-01-25T14:46:42.217Z,35
2019-01-25T14:47:52.159Z,30
2019-01-25T14:49:02.297Z,30
2019-01-25T14:50:12.424Z,30
2019-01-25T14:51:23.261Z,30
2019-01-25T14:52:33.394Z,30
2019-01-25T14:53:43.530Z,30
2019-01-25T14:54:53.723Z,30
2019-01-25T14:56:03.855Z,30
2019-01-25T14:57:14.019Z,30
2019-01-25T14:58:24.944Z,30
2019-01-25T14:59:35.134Z,30
2019-01-25T15:00:45.281Z,25
2019-01-25T15:01:55.419Z,25
2019-01-25T15:03:05.569Z,25
2019-01-25T15:04:15.694Z,25
2019-01-25T15:05:25.842Z,25
2019-01-25T15:06:35.975Z,20
2019-01-25T15:07:46.127Z,20
2019-01-25T15:08:55.926Z,20
2019-01-25T15:10:06.088Z,20
2019-01-25T15:11:16.207Z,20
2019-01-25T15:12:26.427Z,15
2019-01-25T15:13:36.565Z,15
2019-01-25T15:14:46.759Z,15
2019-01-25T15:15:56.879Z,15
2019-01-25T15:17:07.035Z,15
2019-01-25T15:18:17.155Z,15
2019-01-25T15:19:27.319Z,15
2019-01-25T15:20:37.432Z,10
2019-01-25T15:21:47.598Z,10
2019-01-25T15:22:57.750Z,10
2019-01-25T15:24:07.907Z,10
2019-01-25T15:25:18.045Z,10
2019-01-25T15:26:28.853Z,10
2019-01-25T15:27:38.990Z,10
2019-01-25T15:28:49.142Z,5
2019-01-25T15:29:59.307Z,5
2019-01-25T15:31:09.483Z,5
2019-01-25T15:32:19.639Z,5
2019-01-25T15:33:29.804Z,5
2019-01-25T15:34:39.931Z,5
2019-01-25T15:35:50.099Z,5
2019-01-25T15:37:00.236Z,0
2019-01-25T15:38:10.420Z,0
2019-01-25T15:39:20.562Z,0
2019-01-25T15:40:30.668Z,0
2019-01-25T15:41:40.824Z,0
2019-01-25T15:42:51.083Z,0
2019-01-25T15:44:01.237Z,0
2019-01-25T15:45:11.360Z,0
2019-01-25T15:46:21.490Z,0
2019-01-25T15:47:31.642Z,0
2019-01-25T15:48:41.803Z,0
2019-01-25T15:49:51.695Z,0
2019-01-25T15:51:01.866Z,0
2019-01-25T15:52:12.008Z,0
2019-01-25T15:53:23.189Z,0
2019-01-25T15:54:33.391Z,0
2019-01-25T15:55:44.213Z,0
2019-01-25T15:56:54.375Z,0
2019-01-25T15:58:04.550Z,0
2019-01-25T15:59:14.709Z,0
2019-01-25T16:00:24.850Z,0
2019-01-25T16:01:34.991Z,0
2019-01-25T16:02:45.161Z,0
2019-01-25T16:03:55.307Z,0
2019-01-25T16:05:05.549Z,0
2019-01-25T16:06:15.706Z,0
2019-01-25T16:07:25.878Z,0
2019-01-25T16:08:36.017Z,0
2019-01-25T16:09:46.176Z,0
2019-01-25T16:10:56.312Z,0
2019-01-25T16:12:06.443Z,0
2019-01-25T16:13:16.571Z,0
2019-01-25T16:14:27.850Z,0
2019-01-25T16:15:38.061Z,0
2019-01-25T16:16:48.182Z,0
2019-01-25T16:17:58.106Z,0
2019-01-25T16:19:08.242Z,0
2019-01-25T16:20:18.386Z,0
2019-01-25T16:21:28.528Z,0
2019-01-25T16:22:38.893Z,0
2019-01-25T16:23:49.060Z,0
2019-01-25T16:24:59.259Z,0
2019-01-25T16:26:09.180Z,0
2019-01-25T16:27:19.444Z,0
2019-01-25T16:28:29.599Z,0
2019-01-25T16:29:39.752Z,0
2019-01-25T16:30:49.868Z,0
2019-01-25T16:31:59.994Z,0
2019-01-25T16:33:10.185Z,0
2019-01-25T16:34:20.308Z,0
2019-01-25T16:35:30.187Z,0
2019-01-25T16:36:40.349Z,0
2019-01-25T16:37:50.513Z,0
2019-01-25T16:39:00.687Z,0
2019-01-25T16:40:10.812Z,0
2019-01-25T16:41:20.948Z,0
2019-01-25T16:42:31.105Z,0
2019-01-25T16:43:41.281Z,0
2019-01-25T16:44:51.448Z,0
2019-01-25T16:46:01.581Z,0
2019-01-25T16:47:11.711Z,0
2019-01-25T16:48:21.825Z,0
2019-01-25T16:49:31.695Z,0
2019-01-25T16:50:42.384Z,0
2019-01-25T16:51:52.564Z,0
2019-01-25T16:53:02.731Z,0
2019-01-25T16:54:12.685Z,0